Latest Weather Observations for Fawkner Beacon

IDV60901

Issued at 3:01 pm EDT Saturday 25 March 2017 (issued every 10 minutes, with the page automatically refreshed every 10 minutes)

About weather observations | Map of Melbourne area stations | Latest observations for Melbourne area | Other Formats
Station Details ID: 086376 Name: FAWKNER BEACON Lat: -37.91 Lon: 144.93 Height: 17.0 m
Data from the previous 72 hours. | See also: Recent months for locations in Victoria
Date/Time
EDT
Temp
°C
App
Temp
°C
Dew
Point
°C
Rel
Hum
%
Delta-T
°C
Wind Press
QNH
hPa
Press
MSL
hPa
Rain since
9am
mm
Dir  Spd
km/h
Gust
km/h
Spd
kts
Gust
kts
25/03:00pm - - - - - NNE 15 20 8 11 - - -
25/02:30pm - - - - - NE 19 24 10 13 - - -
25/02:00pm - - - - - NNE 20 24 11 13 - - -
25/01:30pm - - - - - NNE 24 28 13 15 - - -
25/01:00pm - - - - - NNE 26 30 14 16 - - -
25/12:30pm - - - - - N 24 30 13 16 - - -
25/12:00pm - - - - - N 26 30 14 16 - - -
25/11:30am - - - - - N 28 33 15 18 - - -
25/11:00am - - - - - N 33 43 18 23 - - -
25/10:30am - - - - - N 30 35 16 19 - - -
25/10:00am - - - - - N 35 43 19 23 - - -
25/09:30am - - - - - N 35 41 19 22 - - -
25/09:00am - - - - - N 33 43 18 23 - - -
25/08:30am - - - - - N 35 44 19 24 - - -
25/08:00am - - - - - N 33 43 18 23 - - -
25/07:30am - - - - - N 28 39 15 21 - - -
25/07:00am - - - - - N 19 28 10 15 - - -
25/06:30am - - - - - N 9 11 5 6 - - -
25/06:00am - - - - - N 13 15 7 8 - - -
25/05:30am - - - - - N 13 15 7 8 - - -
25/05:00am - - - - - N 17 22 9 12 - - -
25/04:30am - - - - - N 20 22 11 12 - - -
25/04:00am - - - - - NNE 24 28 13 15 - - -
25/03:30am - - - - - NNE 24 26 13 14 - - -
25/03:00am - - - - - N 13 20 7 11 - - -
25/02:30am - - - - - NNE 6 9 3 5 - - -
25/02:00am - - - - - WSW 6 7 3 4 - - -
25/01:30am - - - - - W 11 13 6 7 - - -
25/01:00am - - - - - WNW 9 11 5 6 - - -
25/12:30am - - - - - NNE 9 11 5 6 - - -
25/12:00am - - - - - NE 13 15 7 8 - - -
 
Date/Time
EDT
Temp
°C
App
Temp
°C
Dew
Point
°C
Rel
Hum
%
Delta-T
°C
Wind Press
QNH
hPa
Press
MSL
hPa
Rain since
9am
mm
Dir  Spd
km/h
Gust
km/h
Spd
kts
Gust
kts
24/11:30pm - - - - - NE 11 13 6 7 - - -
24/11:00pm - - - - - ENE 13 15 7 8 - - -
24/10:30pm - - - - - E 17 20 9 11 - - -
24/10:00pm - - - - - ESE 22 26 12 14 - - -
24/09:30pm - - - - - E 24 30 13 16 - - -
24/09:00pm - - - - - ESE 24 28 13 15 - - -
24/08:30pm - - - - - ESE 24 26 13 14 - - -
24/08:00pm - - - - - ESE 26 30 14 16 - - -
24/07:30pm - - - - - ESE 28 32 15 17 - - -
24/07:00pm - - - - - ESE 28 32 15 17 - - -
24/06:30pm - - - - - SE 24 28 13 15 - - -
24/06:00pm - - - - - S 17 22 9 12 - - -
24/05:30pm - - - - - S 13 17 7 9 - - -
24/05:00pm - - - - - SSW 15 17 8 9 - - -
24/04:30pm - - - - - S 13 17 7 9 - - -
24/04:00pm - - - - - S 13 15 7 8 - - -
24/03:30pm - - - - - SSW 9 13 5 7 - - -
24/03:00pm - - - - - SW 13 15 7 8 - - -
24/02:30pm - - - - - SW 11 13 6 7 - - -
24/02:00pm - - - - - SSE 6 7 3 4 - - -
24/01:30pm - - - - - SE 9 9 5 5 - - -
24/01:00pm - - - - - SE 11 13 6 7 - - -
24/12:30pm - - - - - SSE 11 15 6 8 - - -
24/12:00pm - - - - - SSE 7 11 4 6 - - -
24/11:30am - - - - - ESE 6 7 3 4 - - -
24/11:00am - - - - - NE 7 9 4 5 - - -
24/10:30am - - - - - NNE 6 7 3 4 - - -
24/10:00am - - - - - N 9 13 5 7 - - -
24/09:30am - - - - - N 9 13 5 7 - - -
24/09:00am - - - - - N 9 11 5 6 - - -
24/08:30am - - - - - N 9 13 5 7 - - -
24/08:00am - - - - - ENE 7 11 4 6 - - -
24/07:30am - - - - - NE 9 13 5 7 - - -
24/07:00am - - - - - ENE 9 13 5 7 - - -
24/06:30am - - - - - ENE 15 17 8 9 - - -
24/06:00am - - - - - ENE 17 20 9 11 - - -
24/05:30am - - - - - E 20 26 11 14 - - -
24/05:00am - - - - - E 28 33 15 18 - - -
24/04:30am - - - - - E 32 41 17 22 - - -
24/04:00am - - - - - E 33 41 18 22 - - -
24/03:30am - - - - - E 35 43 19 23 - - -
24/03:00am - - - - - ESE 43 46 23 25 - - -
24/02:30am - - - - - ESE 41 46 22 25 - - -
24/02:00am - - - - - ESE 41 48 22 26 - - -
24/01:30am - - - - - ESE 39 46 21 25 - - -
24/01:00am - - - - - E 37 46 20 25 - - -
24/12:30am - - - - - ESE 41 52 22 28 - - -
24/12:00am - - - - - E 46 54 25 29 - - -
 
Date/Time
EDT
Temp
°C
App
Temp
°C
Dew
Point
°C
Rel
Hum
%
Delta-T
°C
Wind Press
QNH
hPa
Press
MSL
hPa
Rain since
9am
mm
Dir  Spd
km/h
Gust
km/h
Spd
kts
Gust
kts
23/11:30pm - - - - - ESE 46 57 25 31 - - -
23/11:00pm - - - - - E 46 54 25 29 - - -
23/10:30pm - - - - - ESE 44 52 24 28 - - -
23/10:00pm - - - - - ESE 44 54 24 29 - - -
23/09:30pm - - - - - ESE 43 52 23 28 - - -
23/09:00pm - - - - - ESE 44 54 24 29 - - -
23/08:30pm - - - - - ESE 43 50 23 27 - - -
23/08:00pm - - - - - ESE 46 54 25 29 - - -
23/07:30pm - - - - - ESE 43 50 23 27 - - -
23/07:00pm - - - - - ESE 39 48 21 26 - - -
23/06:30pm - - - - - ESE 43 50 23 27 - - -
23/06:00pm - - - - - ESE 41 48 22 26 - - -
23/05:30pm - - - - - ESE 37 46 20 25 - - -
23/05:00pm - - - - - ESE 35 43 19 23 - - -
23/04:30pm - - - - - ESE 37 44 20 24 - - -
23/04:00pm - - - - - SE 33 43 18 23 - - -
23/03:30pm - - - - - ESE 33 41 18 22 - - -
23/03:00pm - - - - - ESE 35 43 19 23 - - -
23/02:30pm - - - - - ESE 33 43 18 23 - - -
23/02:00pm - - - - - ESE 37 43 20 23 - - -
23/01:30pm - - - - - ESE 39 46 21 25 - - -
23/01:00pm - - - - - ESE 41 48 22 26 - - -
23/12:30pm - - - - - ESE 44 50 24 27 - - -
23/12:00pm - - - - - ESE 43 50 23 27 - - -
23/11:30am - - - - - ESE 43 52 23 28 - - -
23/11:00am - - - - - E 46 54 25 29 - - -
23/10:30am - - - - - ESE 41 54 22 29 - - -
23/10:00am - - - - - ESE 41 50 22 27 - - -
23/09:30am - - - - - ESE 46 54 25 29 - - -
23/09:00am - - - - - ESE 46 57 25 31 - - -
23/08:30am - - - - - ESE 44 57 24 31 - - -
23/08:00am - - - - - ESE 46 57 25 31 - - -
23/07:30am - - - - - ESE 44 54 24 29 - - -
23/07:00am - - - - - ESE 44 54 24 29 - - -
23/06:30am - - - - - ESE 43 54 23 29 - - -
23/06:00am - - - - - ESE 44 54 24 29 - - -
23/05:30am - - - - - ESE 43 52 23 28 - - -
23/05:00am - - - - - ESE 43 54 23 29 - - -
23/04:30am - - - - - ESE 43 54 23 29 - - -
23/04:00am - - - - - ESE 46 57 25 31 - - -
23/03:30am - - - - - ESE 44 54 24 29 - - -
23/03:00am - - - - - ESE 44 52 24 28 - - -
23/02:30am - - - - - ESE 44 54 24 29 - - -
23/02:00am - - - - - ESE 46 59 25 32 - - -
23/01:30am - - - - - E 46 59 25 32 - - -
23/01:00am - - - - - ESE 41 52 22 28 - - -
23/12:30am - - - - - ESE 39 57 21 31 - - -
23/12:28am - - - - - ESE 39 57 21 31 - - -
23/12:00am - - - - - E 43 50 23 27 - - -
 
Date/Time
EDT
Temp
°C
App
Temp
°C
Dew
Point
°C
Rel
Hum
%
Delta-T
°C
Wind Press
QNH
hPa
Press
MSL
hPa
Rain since
9am
mm
Dir  Spd
km/h
Gust
km/h
Spd
kts
Gust
kts
22/11:41pm - - - - - ESE 41 59 22 32 - - -
22/11:30pm - - - - - ESE 44 57 24 31 - - -
22/11:00pm - - - - - ESE 37 52 20 28 - - -
22/10:30pm - - - - - ESE 39 46 21 25 - - -
22/10:00pm - - - - - ESE 41 46 22 25 - - -
22/09:30pm - - - - - ESE 43 52 23 28 - - -
22/09:00pm - - - - - ESE 44 54 24 29 - - -
22/08:30pm - - - - - ESE 43 52 23 28 - - -
22/08:00pm - - - - - ESE 43 54 23 29 - - -
22/07:30pm - - - - - ESE 44 50 24 27 - - -
22/07:00pm - - - - - ESE 46 52 25 28 - - -
22/06:30pm - - - - - ESE 44 54 24 29 - - -
22/06:00pm - - - - - ESE 43 50 23 27 - - -
22/05:30pm - - - - - ESE 43 52 23 28 - - -
22/05:00pm - - - - - SE 44 50 24 27 - - -
22/04:30pm - - - - - SE 41 46 22 25 - - -
22/04:00pm - - - - - ESE 43 50 23 27 - - -
22/03:30pm - - - - - ESE 41 48 22 26 - - -

Latest Capital City Observations: Canberra | Sydney | Melbourne | Brisbane | Adelaide | Perth | Hobart | Darwin

Other Formats:

Comma delimited format used in spreadsheet applications
http://www.bom.gov.au/fwo/IDV60901/IDV60901.95872.axf

JavaScript Object Notation format (JSON) in row-major order
http://www.bom.gov.au/fwo/IDV60901/IDV60901.95872.json